sensor_id;sensor_type;location;lat;lon;timestamp;temperature;humidity
32536;DHT22;18974;50.838;4.636;2023-02-28T00:00:20;1.80;99.90
32536;DHT22;18974;50.838;4.636;2023-02-28T00:02:46;1.80;99.90
32536;DHT22;18974;50.838;4.636;2023-02-28T00:05:16;1.80;99.90
32536;DHT22;18974;50.838;4.636;2023-02-28T00:07:42;1.90;99.90
32536;DHT22;18974;50.838;4.636;2023-02-28T00:10:10;1.90;99.90
32536;DHT22;18974;50.838;4.636;2023-02-28T00:12:36;1.90;99.90
32536;DHT22;18974;50.838;4.636;2023-02-28T00:15:05;1.90;99.90
32536;DHT22;18974;50.838;4.636;2023-02-28T00:17:31;1.70;99.90
32536;DHT22;18974;50.838;4.636;2023-02-28T00:19:57;1.80;99.90
32536;DHT22;18974;50.838;4.636;2023-02-28T00:22:27;1.80;99.90
32536;DHT22;18974;50.838;4.636;2023-02-28T00:24:52;1.80;99.90
32536;DHT22;18974;50.838;4.636;2023-02-28T00:27:18;1.80;99.90
32536;DHT22;18974;50.838;4.636;2023-02-28T00:29:46;1.70;99.90
32536;DHT22;18974;50.838;4.636;2023-02-28T00:32:12;1.60;99.90
32536;DHT22;18974;50.838;4.636;2023-02-28T00:34:38;1.60;99.90
32536;DHT22;18974;50.838;4.636;2023-02-28T00:37:09;1.50;99.90
32536;DHT22;18974;50.838;4.636;2023-02-28T00:39:36;1.60;99.90
32536;DHT22;18974;50.838;4.636;2023-02-28T00:42:03;1.50;99.90
32536;DHT22;18974;50.838;4.636;2023-02-28T00:44:29;1.50;99.90
32536;DHT22;18974;50.838;4.636;2023-02-28T00:46:55;1.50;99.90
32536;DHT22;18974;50.838;4.636;2023-02-28T00:49:22;1.50;99.90
32536;DHT22;18974;50.838;4.636;2023-02-28T00:51:48;1.50;99.90
32536;DHT22;18974;50.838;4.636;2023-02-28T00:54:14;1.50;99.90
32536;DHT22;18974;50.838;4.636;2023-02-28T00:56:39;1.60;99.90
32536;DHT22;18974;50.838;4.636;2023-02-28T00:59:05;1.60;99.90
32536;DHT22;18974;50.838;4.636;2023-02-28T01:01:31;1.50;99.90
32536;DHT22;18974;50.838;4.636;2023-02-28T01:03:56;1.50;99.90
32536;DHT22;18974;50.838;4.636;2023-02-28T01:06:22;1.40;99.90
32536;DHT22;18974;50.838;4.636;2023-02-28T01:08:48;1.40;99.90
32536;DHT22;18974;50.838;4.636;2023-02-28T01:11:16;1.40;99.90
32536;DHT22;18974;50.838;4.636;2023-02-28T01:13:43;1.30;99.90
32536;DHT22;18974;50.838;4.636;2023-02-28T01:16:09;1.30;99.90
32536;DHT22;18974;50.838;4.636;2023-02-28T01:18:36;1.20;99.90
32536;DHT22;18974;50.838;4.636;2023-02-28T01:21:06;1.20;99.90
32536;DHT22;18974;50.838;4.636;2023-02-28T01:23:32;1.20;99.90
32536;DHT22;18974;50.838;4.636;2023-02-28T01:26:08;1.20;99.90
32536;DHT22;18974;50.838;4.636;2023-02-28T01:28:34;1.10;99.90
32536;DHT22;18974;50.838;4.636;2023-02-28T01:30:59;1.10;99.90
32536;DHT22;18974;50.838;4.636;2023-02-28T01:33:25;0.90;99.90
32536;DHT22;18974;50.838;4.636;2023-02-28T01:36:01;1.00;99.90
32536;DHT22;18974;50.838;4.636;2023-02-28T01:38:27;1.00;99.90
32536;DHT22;18974;50.838;4.636;2023-02-28T01:40:53;1.00;99.90
32536;DHT22;18974;50.838;4.636;2023-02-28T01:43:30;1.00;99.90
32536;DHT22;18974;50.838;4.636;2023-02-28T01:45:58;1.00;99.90
32536;DHT22;18974;50.838;4.636;2023-02-28T01:48:35;1.10;99.90
32536;DHT22;18974;50.838;4.636;2023-02-28T01:51:06;1.10;99.90
32536;DHT22;18974;50.838;4.636;2023-02-28T01:53:46;1.10;99.90
32536;DHT22;18974;50.838;4.636;2023-02-28T01:56:16;1.10;99.90
32536;DHT22;18974;50.838;4.636;2023-02-28T01:58:47;1.20;99.90
32536;DHT22;18974;50.838;4.636;2023-02-28T02:01:13;1.20;99.90
32536;DHT22;18974;50.838;4.636;2023-02-28T02:03:51;1.20;99.90
32536;DHT22;18974;50.838;4.636;2023-02-28T02:06:29;1.10;99.90
32536;DHT22;18974;50.838;4.636;2023-02-28T02:08:55;1.10;99.90
32536;DHT22;18974;50.838;4.636;2023-02-28T02:11:23;1.00;99.90
32536;DHT22;18974;50.838;4.636;2023-02-28T02:17:47;1.00;99.90
32536;DHT22;18974;50.838;4.636;2023-02-28T02:20:38;1.00;99.90
32536;DHT22;18974;50.838;4.636;2023-02-28T02:29:31;0.90;99.90
32536;DHT22;18974;50.838;4.636;2023-02-28T02:35:00;0.80;99.90
32536;DHT22;18974;50.838;4.636;2023-02-28T02:40:16;0.70;99.90
32536;DHT22;18974;50.838;4.636;2023-02-28T02:43:00;0.70;99.90
32536;DHT22;18974;50.838;4.636;2023-02-28T02:48:09;0.60;99.90
32536;DHT22;18974;50.838;4.636;2023-02-28T02:50:45;0.60;99.90
32536;DHT22;18974;50.838;4.636;2023-02-28T02:53:13;0.60;99.90
32536;DHT22;18974;50.838;4.636;2023-02-28T02:55:41;0.60;99.90
32536;DHT22;18974;50.838;4.636;2023-02-28T02:58:13;0.50;99.90
32536;DHT22;18974;50.838;4.636;2023-02-28T03:00:45;0.50;99.90
32536;DHT22;18974;50.838;4.636;2023-02-28T03:03:12;0.50;99.90
32536;DHT22;18974;50.838;4.636;2023-02-28T03:05:46;0.40;99.90
32536;DHT22;18974;50.838;4.636;2023-02-28T03:08:12;0.40;99.90
32536;DHT22;18974;50.838;4.636;2023-02-28T03:10:40;0.40;99.90
32536;DHT22;18974;50.838;4.636;2023-02-28T03:21:58;0.30;99.90
32536;DHT22;18974;50.838;4.636;2023-02-28T03:30:06;0.20;99.90
32536;DHT22;18974;50.838;4.636;2023-02-28T03:33:14;0.20;99.90
32536;DHT22;18974;50.838;4.636;2023-02-28T03:35:54;0.20;99.90
32536;DHT22;18974;50.838;4.636;2023-02-28T03:38:26;0.10;99.90
32536;DHT22;18974;50.838;4.636;2023-02-28T03:41:14;0.10;99.90
32536;DHT22;18974;50.838;4.636;2023-02-28T03:43:45;0.10;99.90
32536;DHT22;18974;50.838;4.636;2023-02-28T03:46:15;0.20;99.90
32536;DHT22;18974;50.838;4.636;2023-02-28T03:48:53;0.20;99.90
32536;DHT22;18974;50.838;4.636;2023-02-28T03:51:23;0.20;99.90
32536;DHT22;18974;50.838;4.636;2023-02-28T03:53:56;0.20;99.90
32536;DHT22;18974;50.838;4.636;2023-02-28T03:56:40;0.10;99.90
32536;DHT22;18974;50.838;4.636;2023-02-28T04:01:52;0.30;99.90
32536;DHT22;18974;50.838;4.636;2023-02-28T04:04:18;0.30;99.90
32536;DHT22;18974;50.838;4.636;2023-02-28T04:06:44;0.30;99.90
32536;DHT22;18974;50.838;4.636;2023-02-28T04:09:12;0.40;99.90
32536;DHT22;18974;50.838;4.636;2023-02-28T04:11:41;0.40;99.90
32536;DHT22;18974;50.838;4.636;2023-02-28T04:14:08;0.30;99.90
32536;DHT22;18974;50.838;4.636;2023-02-28T04:16:37;0.30;99.90
32536;DHT22;18974;50.838;4.636;2023-02-28T04:19:05;0.30;99.90
32536;DHT22;18974;50.838;4.636;2023-02-28T04:21:39;0.30;99.90
32536;DHT22;18974;50.838;4.636;2023-02-28T04:24:06;0.50;99.90
32536;DHT22;18974;50.838;4.636;2023-02-28T04:26:36;0.40;99.90
32536;DHT22;18974;50.838;4.636;2023-02-28T04:29:04;0.60;99.90
32536;DHT22;18974;50.838;4.636;2023-02-28T04:31:29;0.60;99.90
32536;DHT22;18974;50.838;4.636;2023-02-28T04:33:55;0.50;99.90
32536;DHT22;18974;50.838;4.636;2023-02-28T04:36:21;0.60;99.90
32536;DHT22;18974;50.838;4.636;2023-02-28T04:38:48;0.50;99.90
32536;DHT22;18974;50.838;4.636;2023-02-28T04:41:14;0.50;99.90
32536;DHT22;18974;50.838;4.636;2023-02-28T04:43:39;0.50;99.90
32536;DHT22;18974;50.838;4.636;2023-02-28T04:46:06;0.50;99.90
32536;DHT22;18974;50.838;4.636;2023-02-28T04:48:34;0.50;99.90
32536;DHT22;18974;50.838;4.636;2023-02-28T04:51:11;0.50;99.90
32536;DHT22;18974;50.838;4.636;2023-02-28T04:53:38;0.60;99.90
32536;DHT22;18974;50.838;4.636;2023-02-28T04:56:05;0.60;99.90
32536;DHT22;18974;50.838;4.636;2023-02-28T04:58:31;0.60;99.90
32536;DHT22;18974;50.838;4.636;2023-02-28T05:01:25;0.60;99.90
32536;DHT22;18974;50.838;4.636;2023-02-28T05:03:52;0.70;99.90
32536;DHT22;18974;50.838;4.636;2023-02-28T05:06:19;0.60;99.90
32536;DHT22;18974;50.838;4.636;2023-02-28T05:08:45;0.70;99.90
32536;DHT22;18974;50.838;4.636;2023-02-28T05:11:38;0.60;99.90
32536;DHT22;18974;50.838;4.636;2023-02-28T05:14:12;0.60;99.90
32536;DHT22;18974;50.838;4.636;2023-02-28T05:16:38;0.60;99.90
32536;DHT22;18974;50.838;4.636;2023-02-28T05:19:04;0.60;99.90
32536;DHT22;18974;50.838;4.636;2023-02-28T05:21:36;0.60;99.90
32536;DHT22;18974;50.838;4.636;2023-02-28T05:24:06;0.60;99.90
32536;DHT22;18974;50.838;4.636;2023-02-28T05:26:38;0.50;99.90
32536;DHT22;18974;50.838;4.636;2023-02-28T05:29:04;0.60;99.90
32536;DHT22;18974;50.838;4.636;2023-02-28T05:31:30;0.60;99.90
32536;DHT22;18974;50.838;4.636;2023-02-28T05:33:56;0.60;99.90
32536;DHT22;18974;50.838;4.636;2023-02-28T05:36:23;0.60;99.90
32536;DHT22;18974;50.838;4.636;2023-02-28T05:38:49;0.70;99.90
32536;DHT22;18974;50.838;4.636;2023-02-28T05:41:16;0.80;99.90
32536;DHT22;18974;50.838;4.636;2023-02-28T05:43:42;0.80;99.90
32536;DHT22;18974;50.838;4.636;2023-02-28T05:46:10;0.80;99.90
32536;DHT22;18974;50.838;4.636;2023-02-28T05:48:37;0.90;99.90
32536;DHT22;18974;50.838;4.636;2023-02-28T05:51:04;0.90;99.90
32536;DHT22;18974;50.838;4.636;2023-02-28T05:53:30;0.90;99.90
32536;DHT22;18974;50.838;4.636;2023-02-28T05:55:56;0.90;99.90
32536;DHT22;18974;50.838;4.636;2023-02-28T05:58:23;0.90;99.90
32536;DHT22;18974;50.838;4.636;2023-02-28T06:00:50;0.90;99.90
32536;DHT22;18974;50.838;4.636;2023-02-28T06:03:16;1.00;99.90
32536;DHT22;18974;50.838;4.636;2023-02-28T06:05:41;0.90;99.90
32536;DHT22;18974;50.838;4.636;2023-02-28T06:08:07;0.80;99.90
32536;DHT22;18974;50.838;4.636;2023-02-28T06:10:34;0.80;99.90
32536;DHT22;18974;50.838;4.636;2023-02-28T06:13:03;0.80;99.90
32536;DHT22;18974;50.838;4.636;2023-02-28T06:15:29;0.80;99.90
32536;DHT22;18974;50.838;4.636;2023-02-28T06:17:55;0.80;99.90
32536;DHT22;18974;50.838;4.636;2023-02-28T06:20:22;0.80;99.90
32536;DHT22;18974;50.838;4.636;2023-02-28T06:22:48;0.80;99.90
32536;DHT22;18974;50.838;4.636;2023-02-28T06:25:15;0.80;99.90
32536;DHT22;18974;50.838;4.636;2023-02-28T06:27:41;0.70;99.90
32536;DHT22;18974;50.838;4.636;2023-02-28T06:30:07;0.70;99.90
32536;DHT22;18974;50.838;4.636;2023-02-28T06:32:33;0.70;99.90
32536;DHT22;18974;50.838;4.636;2023-02-28T06:34:58;0.80;99.90
32536;DHT22;18974;50.838;4.636;2023-02-28T06:37:24;0.70;99.90
32536;DHT22;18974;50.838;4.636;2023-02-28T06:39:54;0.80;99.90
32536;DHT22;18974;50.838;4.636;2023-02-28T06:42:22;0.80;99.90
32536;DHT22;18974;50.838;4.636;2023-02-28T06:44:50;0.80;99.90
32536;DHT22;18974;50.838;4.636;2023-02-28T06:47:16;0.80;99.90
32536;DHT22;18974;50.838;4.636;2023-02-28T06:49:42;0.80;99.90
32536;DHT22;18974;50.838;4.636;2023-02-28T06:52:07;0.80;99.90
32536;DHT22;18974;50.838;4.636;2023-02-28T06:54:36;0.90;99.90
32536;DHT22;18974;50.838;4.636;2023-02-28T06:57:02;0.90;99.90
32536;DHT22;18974;50.838;4.636;2023-02-28T06:59:27;0.80;99.90
32536;DHT22;18974;50.838;4.636;2023-02-28T07:01:53;0.90;99.90
32536;DHT22;18974;50.838;4.636;2023-02-28T07:04:20;0.80;99.90
32536;DHT22;18974;50.838;4.636;2023-02-28T07:06:46;0.90;99.90
32536;DHT22;18974;50.838;4.636;2023-02-28T07:09:12;0.90;99.90
32536;DHT22;18974;50.838;4.636;2023-02-28T07:11:39;1.00;99.90
32536;DHT22;18974;50.838;4.636;2023-02-28T07:14:06;0.90;99.90
32536;DHT22;18974;50.838;4.636;2023-02-28T07:16:32;0.90;99.90
32536;DHT22;18974;50.838;4.636;2023-02-28T07:18:58;1.00;99.90
32536;DHT22;18974;50.838;4.636;2023-02-28T07:21:24;1.00;99.90
32536;DHT22;18974;50.838;4.636;2023-02-28T07:23:50;1.00;99.90
32536;DHT22;18974;50.838;4.636;2023-02-28T07:26:18;1.10;99.90
32536;DHT22;18974;50.838;4.636;2023-02-28T07:28:46;1.20;99.90
32536;DHT22;18974;50.838;4.636;2023-02-28T07:31:12;1.30;99.90
32536;DHT22;18974;50.838;4.636;2023-02-28T07:33:39;1.40;99.90
32536;DHT22;18974;50.838;4.636;2023-02-28T07:36:10;1.40;99.90
32536;DHT22;18974;50.838;4.636;2023-02-28T07:38:47;1.50;99.90
32536;DHT22;18974;50.838;4.636;2023-02-28T07:41:16;1.50;99.90
32536;DHT22;18974;50.838;4.636;2023-02-28T07:43:42;1.60;99.90
32536;DHT22;18974;50.838;4.636;2023-02-28T07:46:11;1.60;99.90
32536;DHT22;18974;50.838;4.636;2023-02-28T07:48:37;1.80;99.90
32536;DHT22;18974;50.838;4.636;2023-02-28T07:51:04;1.90;99.90
32536;DHT22;18974;50.838;4.636;2023-02-28T07:53:30;2.00;99.90
32536;DHT22;18974;50.838;4.636;2023-02-28T07:56:00;2.10;99.90
32536;DHT22;18974;50.838;4.636;2023-02-28T07:58:27;2.10;99.90
32536;DHT22;18974;50.838;4.636;2023-02-28T08:00:53;2.10;99.90
32536;DHT22;18974;50.838;4.636;2023-02-28T08:03:20;2.20;99.90
32536;DHT22;18974;50.838;4.636;2023-02-28T08:05:46;2.30;99.90
32536;DHT22;18974;50.838;4.636;2023-02-28T08:08:11;2.40;99.90
32536;DHT22;18974;50.838;4.636;2023-02-28T08:10:37;2.40;99.90
32536;DHT22;18974;50.838;4.636;2023-02-28T08:13:03;2.50;99.90
32536;DHT22;18974;50.838;4.636;2023-02-28T08:15:29;2.70;99.90
32536;DHT22;18974;50.838;4.636;2023-02-28T08:17:55;2.80;99.90
32536;DHT22;18974;50.838;4.636;2023-02-28T08:20:22;2.80;99.90
32536;DHT22;18974;50.838;4.636;2023-02-28T08:22:48;2.90;99.90
32536;DHT22;18974;50.838;4.636;2023-02-28T08:25:14;3.00;99.90
32536;DHT22;18974;50.838;4.636;2023-02-28T08:27:43;2.90;99.90
32536;DHT22;18974;50.838;4.636;2023-02-28T08:30:11;3.00;99.90
32536;DHT22;18974;50.838;4.636;2023-02-28T08:32:37;2.90;99.90
32536;DHT22;18974;50.838;4.636;2023-02-28T08:35:04;3.10;99.90
32536;DHT22;18974;50.838;4.636;2023-02-28T08:37:29;3.10;99.90
32536;DHT22;18974;50.838;4.636;2023-02-28T08:39:55;3.20;99.90
32536;DHT22;18974;50.838;4.636;2023-02-28T08:42:21;3.20;99.90
32536;DHT22;18974;50.838;4.636;2023-02-28T08:44:46;3.30;99.90
32536;DHT22;18974;50.838;4.636;2023-02-28T08:47:12;3.30;99.90
32536;DHT22;18974;50.838;4.636;2023-02-28T08:49:38;3.30;99.90
32536;DHT22;18974;50.838;4.636;2023-02-28T08:52:03;3.30;99.90
32536;DHT22;18974;50.838;4.636;2023-02-28T08:54:29;3.40;99.90
32536;DHT22;18974;50.838;4.636;2023-02-28T08:56:57;3.50;99.90
32536;DHT22;18974;50.838;4.636;2023-02-28T08:59:22;3.60;99.90
32536;DHT22;18974;50.838;4.636;2023-02-28T09:01:48;3.70;99.90
32536;DHT22;18974;50.838;4.636;2023-02-28T09:04:14;3.70;99.90
32536;DHT22;18974;50.838;4.636;2023-02-28T09:06:39;3.90;99.90
32536;DHT22;18974;50.838;4.636;2023-02-28T09:09:05;3.80;99.90
32536;DHT22;18974;50.838;4.636;2023-02-28T09:11:34;4.00;99.90
32536;DHT22;18974;50.838;4.636;2023-02-28T09:14:00;4.00;99.90
32536;DHT22;18974;50.838;4.636;2023-02-28T09:16:29;4.10;99.90
32536;DHT22;18974;50.838;4.636;2023-02-28T09:18:54;4.00;99.90
32536;DHT22;18974;50.838;4.636;2023-02-28T09:21:20;4.10;99.90
32536;DHT22;18974;50.838;4.636;2023-02-28T09:23:47;4.20;99.90
32536;DHT22;18974;50.838;4.636;2023-02-28T09:26:19;4.30;99.90
32536;DHT22;18974;50.838;4.636;2023-02-28T09:28:45;4.30;99.90
32536;DHT22;18974;50.838;4.636;2023-02-28T09:31:17;4.40;99.90
32536;DHT22;18974;50.838;4.636;2023-02-28T09:33:46;4.40;99.90
32536;DHT22;18974;50.838;4.636;2023-02-28T09:36:12;4.40;99.90
32536;DHT22;18974;50.838;4.636;2023-02-28T09:38:37;4.50;99.90
32536;DHT22;18974;50.838;4.636;2023-02-28T09:41:12;4.60;99.90
32536;DHT22;18974;50.838;4.636;2023-02-28T09:43:42;4.80;99.90
32536;DHT22;18974;50.838;4.636;2023-02-28T09:48:53;5.10;99.90
32536;DHT22;18974;50.838;4.636;2023-02-28T09:53:58;5.10;99.90
32536;DHT22;18974;50.838;4.636;2023-02-28T09:56:31;5.20;99.90
32536;DHT22;18974;50.838;4.636;2023-02-28T10:02:08;5.40;99.90
32536;DHT22;18974;50.838;4.636;2023-02-28T10:04:45;5.50;99.90
32536;DHT22;18974;50.838;4.636;2023-02-28T10:08:10;5.60;99.90
32536;DHT22;18974;50.838;4.636;2023-02-28T10:10:49;5.60;99.90
32536;DHT22;18974;50.838;4.636;2023-02-28T10:13:20;5.40;99.90
32536;DHT22;18974;50.838;4.636;2023-02-28T10:15:51;5.60;99.90
32536;DHT22;18974;50.838;4.636;2023-02-28T10:18:22;5.80;99.90
32536;DHT22;18974;50.838;4.636;2023-02-28T10:20:51;5.90;99.40
32536;DHT22;18974;50.838;4.636;2023-02-28T10:23:37;5.90;98.40
32536;DHT22;18974;50.838;4.636;2023-02-28T10:26:21;6.00;98.80
32536;DHT22;18974;50.838;4.636;2023-02-28T10:28:49;6.20;98.80
32536;DHT22;18974;50.838;4.636;2023-02-28T10:31:20;6.20;98.50
32536;DHT22;18974;50.838;4.636;2023-02-28T10:33:47;6.30;98.00
32536;DHT22;18974;50.838;4.636;2023-02-28T10:36:19;6.00;97.70
32536;DHT22;18974;50.838;4.636;2023-02-28T10:38:46;6.00;99.70
32536;DHT22;18974;50.838;4.636;2023-02-28T10:44:21;6.10;97.50
32536;DHT22;18974;50.838;4.636;2023-02-28T10:46:54;6.20;96.70
32536;DHT22;18974;50.838;4.636;2023-02-28T10:49:28;6.20;97.70
32536;DHT22;18974;50.838;4.636;2023-02-28T10:51:59;6.30;97.80
32536;DHT22;18974;50.838;4.636;2023-02-28T10:54:35;6.50;97.50
32536;DHT22;18974;50.838;4.636;2023-02-28T10:57:22;6.70;97.70
32536;DHT22;18974;50.838;4.636;2023-02-28T11:00:06;6.80;95.70
32536;DHT22;18974;50.838;4.636;2023-02-28T11:02:37;6.80;95.60
32536;DHT22;18974;50.838;4.636;2023-02-28T11:05:26;7.00;96.30
32536;DHT22;18974;50.838;4.636;2023-02-28T11:08:14;6.90;94.70
32536;DHT22;18974;50.838;4.636;2023-02-28T11:10:39;6.70;96.80
32536;DHT22;18974;50.838;4.636;2023-02-28T11:13:17;6.60;96.80
32536;DHT22;18974;50.838;4.636;2023-02-28T11:15:56;6.70;96.00
32536;DHT22;18974;50.838;4.636;2023-02-28T11:18:50;6.50;96.00
32536;DHT22;18974;50.838;4.636;2023-02-28T11:21:27;6.60;96.60
32536;DHT22;18974;50.838;4.636;2023-02-28T11:24:12;6.60;95.70
32536;DHT22;18974;50.838;4.636;2023-02-28T11:26:45;6.30;95.00
32536;DHT22;18974;50.838;4.636;2023-02-28T11:31:37;6.40;93.60
32536;DHT22;18974;50.838;4.636;2023-02-28T11:34:23;6.50;94.10
32536;DHT22;18974;50.838;4.636;2023-02-28T11:36:51;6.70;95.10
32536;DHT22;18974;50.838;4.636;2023-02-28T11:39:21;7.10;93.90
32536;DHT22;18974;50.838;4.636;2023-02-28T11:48:29;7.70;92.40
32536;DHT22;18974;50.838;4.636;2023-02-28T11:53:03;7.60;92.50
32536;DHT22;18974;50.838;4.636;2023-02-28T12:26:35;7.40;90.90
32536;DHT22;18974;50.838;4.636;2023-02-28T12:29:16;7.50;91.80
32536;DHT22;18974;50.838;4.636;2023-02-28T12:31:57;7.60;92.10
32536;DHT22;18974;50.838;4.636;2023-02-28T12:34:36;7.70;90.30
32536;DHT22;18974;50.838;4.636;2023-02-28T12:37:08;7.50;89.60
32536;DHT22;18974;50.838;4.636;2023-02-28T12:39:43;7.40;89.70
32536;DHT22;18974;50.838;4.636;2023-02-28T12:42:19;7.50;90.40
32536;DHT22;18974;50.838;4.636;2023-02-28T12:44:50;7.50;90.70
32536;DHT22;18974;50.838;4.636;2023-02-28T12:47:17;7.70;90.40
32536;DHT22;18974;50.838;4.636;2023-02-28T12:49:53;7.90;90.50
32536;DHT22;18974;50.838;4.636;2023-02-28T13:00:38;7.80;88.80
32536;DHT22;18974;50.838;4.636;2023-02-28T13:09:03;7.60;88.10
32536;DHT22;18974;50.838;4.636;2023-02-28T13:14:00;7.70;89.30
32536;DHT22;18974;50.838;4.636;2023-02-28T13:16:25;7.90;91.10
32536;DHT22;18974;50.838;4.636;2023-02-28T13:18:51;8.10;89.30
32536;DHT22;18974;50.838;4.636;2023-02-28T13:21:29;8.00;87.60
32536;DHT22;18974;50.838;4.636;2023-02-28T13:24:00;8.00;89.40
32536;DHT22;18974;50.838;4.636;2023-02-28T13:32:28;8.30;86.40
32536;DHT22;18974;50.838;4.636;2023-02-28T13:39:56;7.60;87.30
32536;DHT22;18974;50.838;4.636;2023-02-28T13:47:43;7.90;89.20
32536;DHT22;18974;50.838;4.636;2023-02-28T14:01:25;7.80;87.60
32536;DHT22;18974;50.838;4.636;2023-02-28T14:06:57;7.90;86.60
32536;DHT22;18974;50.838;4.636;2023-02-28T14:09:24;7.80;86.70
32536;DHT22;18974;50.838;4.636;2023-02-28T14:11:52;7.70;88.10
32536;DHT22;18974;50.838;4.636;2023-02-28T14:17:03;7.90;90.60
32536;DHT22;18974;50.838;4.636;2023-02-28T14:19:32;7.80;88.50
32536;DHT22;18974;50.838;4.636;2023-02-28T14:27:40;7.40;85.60
32536;DHT22;18974;50.838;4.636;2023-02-28T14:33:19;7.50;90.00
32536;DHT22;18974;50.838;4.636;2023-02-28T14:38:56;7.70;89.60
32536;DHT22;18974;50.838;4.636;2023-02-28T14:43:58;7.90;87.40
32536;DHT22;18974;50.838;4.636;2023-02-28T14:46:34;7.90;88.50
32536;DHT22;18974;50.838;4.636;2023-02-28T14:49:01;7.90;89.30
32536;DHT22;18974;50.838;4.636;2023-02-28T14:51:26;7.80;87.00
32536;DHT22;18974;50.838;4.636;2023-02-28T14:53:57;7.70;90.00
32536;DHT22;18974;50.838;4.636;2023-02-28T14:56:35;7.90;89.90
32536;DHT22;18974;50.838;4.636;2023-02-28T14:59:02;7.90;88.40
32536;DHT22;18974;50.838;4.636;2023-02-28T15:01:28;7.80;89.20
32536;DHT22;18974;50.838;4.636;2023-02-28T15:03:58;7.90;89.10
32536;DHT22;18974;50.838;4.636;2023-02-28T15:06:24;7.80;90.00
32536;DHT22;18974;50.838;4.636;2023-02-28T15:09:13;7.90;88.80
32536;DHT22;18974;50.838;4.636;2023-02-28T15:11:52;7.80;88.40
32536;DHT22;18974;50.838;4.636;2023-02-28T15:14:22;7.50;88.80
32536;DHT22;18974;50.838;4.636;2023-02-28T15:17:01;7.50;90.40
32536;DHT22;18974;50.838;4.636;2023-02-28T15:19:34;7.50;89.70
32536;DHT22;18974;50.838;4.636;2023-02-28T15:22:05;7.30;88.50
32536;DHT22;18974;50.838;4.636;2023-02-28T15:24:43;7.20;88.00
32536;DHT22;18974;50.838;4.636;2023-02-28T15:27:20;7.10;90.30
32536;DHT22;18974;50.838;4.636;2023-02-28T15:29:54;7.10;90.50
32536;DHT22;18974;50.838;4.636;2023-02-28T15:32:25;7.20;90.00
32536;DHT22;18974;50.838;4.636;2023-02-28T15:34:51;7.10;89.30
32536;DHT22;18974;50.838;4.636;2023-02-28T15:38:12;6.90;88.70
32536;DHT22;18974;50.838;4.636;2023-02-28T15:40:42;6.70;90.00
32536;DHT22;18974;50.838;4.636;2023-02-28T15:43:17;6.60;90.20
32536;DHT22;18974;50.838;4.636;2023-02-28T15:46:11;6.60;90.30
32536;DHT22;18974;50.838;4.636;2023-02-28T15:48:53;6.60;90.50
32536;DHT22;18974;50.838;4.636;2023-02-28T15:51:29;6.60;91.20
32536;DHT22;18974;50.838;4.636;2023-02-28T15:54:00;6.60;91.50
32536;DHT22;18974;50.838;4.636;2023-02-28T15:56:29;6.50;92.10
32536;DHT22;18974;50.838;4.636;2023-02-28T15:58:57;6.70;91.60
32536;DHT22;18974;50.838;4.636;2023-02-28T16:01:29;6.60;91.10
32536;DHT22;18974;50.838;4.636;2023-02-28T16:04:05;6.50;91.70
32536;DHT22;18974;50.838;4.636;2023-02-28T16:07:03;6.60;91.40
32536;DHT22;18974;50.838;4.636;2023-02-28T16:09:29;6.50;91.10
32536;DHT22;18974;50.838;4.636;2023-02-28T16:11:59;6.30;91.20
32536;DHT22;18974;50.838;4.636;2023-02-28T16:14:28;6.30;91.20
32536;DHT22;18974;50.838;4.636;2023-02-28T16:17:03;6.10;91.30
32536;DHT22;18974;50.838;4.636;2023-02-28T16:19:30;6.00;91.70
32536;DHT22;18974;50.838;4.636;2023-02-28T16:21:56;5.90;91.80
32536;DHT22;18974;50.838;4.636;2023-02-28T16:24:22;5.80;92.20
32536;DHT22;18974;50.838;4.636;2023-02-28T16:26:49;5.80;92.10
32536;DHT22;18974;50.838;4.636;2023-02-28T16:29:35;5.80;92.20
32536;DHT22;18974;50.838;4.636;2023-02-28T16:32:04;5.70;91.80
32536;DHT22;18974;50.838;4.636;2023-02-28T16:34:30;5.80;91.80
32536;DHT22;18974;50.838;4.636;2023-02-28T16:36:56;5.80;91.80
32536;DHT22;18974;50.838;4.636;2023-02-28T16:39:21;5.70;91.60
32536;DHT22;18974;50.838;4.636;2023-02-28T16:41:48;5.80;91.50
32536;DHT22;18974;50.838;4.636;2023-02-28T16:44:41;5.80;91.60
32536;DHT22;18974;50.838;4.636;2023-02-28T16:47:10;5.60;92.10
32536;DHT22;18974;50.838;4.636;2023-02-28T16:49:36;5.60;92.40
32536;DHT22;18974;50.838;4.636;2023-02-28T16:52:01;5.50;92.70
32536;DHT22;18974;50.838;4.636;2023-02-28T16:54:27;5.50;92.70
32536;DHT22;18974;50.838;4.636;2023-02-28T16:56:53;5.50;92.90
32536;DHT22;18974;50.838;4.636;2023-02-28T16:59:22;5.40;92.80
32536;DHT22;18974;50.838;4.636;2023-02-28T17:01:49;5.40;93.20
32536;DHT22;18974;50.838;4.636;2023-02-28T17:04:15;5.40;92.90
32536;DHT22;18974;50.838;4.636;2023-02-28T17:06:41;5.40;93.30
32536;DHT22;18974;50.838;4.636;2023-02-28T17:09:27;5.40;93.00
32536;DHT22;18974;50.838;4.636;2023-02-28T17:11:53;5.40;93.10
32536;DHT22;18974;50.838;4.636;2023-02-28T17:14:18;5.40;93.00
32536;DHT22;18974;50.838;4.636;2023-02-28T17:16:44;5.40;93.40
32536;DHT22;18974;50.838;4.636;2023-02-28T17:19:13;5.30;93.30
32536;DHT22;18974;50.838;4.636;2023-02-28T17:21:39;5.30;93.50
32536;DHT22;18974;50.838;4.636;2023-02-28T17:24:07;5.20;93.70
32536;DHT22;18974;50.838;4.636;2023-02-28T17:26:33;5.10;93.90
32536;DHT22;18974;50.838;4.636;2023-02-28T17:28:59;5.20;93.90
32536;DHT22;18974;50.838;4.636;2023-02-28T17:31:26;5.10;94.10
32536;DHT22;18974;50.838;4.636;2023-02-28T17:33:53;5.10;93.70
32536;DHT22;18974;50.838;4.636;2023-02-28T17:36:25;5.10;94.00
32536;DHT22;18974;50.838;4.636;2023-02-28T17:38:52;5.00;93.90
32536;DHT22;18974;50.838;4.636;2023-02-28T17:41:18;5.10;94.00
32536;DHT22;18974;50.838;4.636;2023-02-28T17:43:44;5.00;94.20
32536;DHT22;18974;50.838;4.636;2023-02-28T17:46:21;5.00;94.30
32536;DHT22;18974;50.838;4.636;2023-02-28T17:48:48;5.00;94.10
32536;DHT22;18974;50.838;4.636;2023-02-28T17:51:15;4.90;94.20
32536;DHT22;18974;50.838;4.636;2023-02-28T17:53:41;4.80;94.40
32536;DHT22;18974;50.838;4.636;2023-02-28T17:56:21;4.70;94.50
32536;DHT22;18974;50.838;4.636;2023-02-28T17:58:48;4.70;94.30
32536;DHT22;18974;50.838;4.636;2023-02-28T18:01:14;4.70;94.50
32536;DHT22;18974;50.838;4.636;2023-02-28T18:03:40;4.70;94.50
32536;DHT22;18974;50.838;4.636;2023-02-28T18:06:06;4.70;94.50
32536;DHT22;18974;50.838;4.636;2023-02-28T18:08:32;4.60;94.60
32536;DHT22;18974;50.838;4.636;2023-02-28T18:11:00;4.60;94.60
32536;DHT22;18974;50.838;4.636;2023-02-28T18:13:26;4.60;94.60
32536;DHT22;18974;50.838;4.636;2023-02-28T18:15:53;4.60;94.50
32536;DHT22;18974;50.838;4.636;2023-02-28T18:18:19;4.60;94.60
32536;DHT22;18974;50.838;4.636;2023-02-28T18:20:45;4.60;95.00
32536;DHT22;18974;50.838;4.636;2023-02-28T18:23:10;4.50;94.70
32536;DHT22;18974;50.838;4.636;2023-02-28T18:25:36;4.60;95.10
32536;DHT22;18974;50.838;4.636;2023-02-28T18:28:03;4.50;94.80
32536;DHT22;18974;50.838;4.636;2023-02-28T18:30:32;4.50;95.00
32536;DHT22;18974;50.838;4.636;2023-02-28T18:33:00;4.50;95.10
32536;DHT22;18974;50.838;4.636;2023-02-28T18:35:27;4.40;95.30